createdAt,value
2022-09-07T00:00:27.133Z,4.35
2022-09-07T00:02:54.135Z,7.60
2022-09-07T00:05:20.882Z,6.35
2022-09-07T00:07:47.870Z,3.63
2022-09-07T00:10:15.045Z,4.03
2022-09-07T00:12:41.822Z,2.88
2022-09-07T00:15:12.211Z,2.78
2022-09-07T00:17:39.651Z,3.58
2022-09-07T00:20:08.733Z,2.25
2022-09-07T00:22:36.161Z,2.20
2022-09-07T00:25:05.463Z,1.92
2022-09-07T00:27:32.392Z,3.70
2022-09-07T00:29:59.177Z,2.05
2022-09-07T00:32:27.300Z,4.00
2022-09-07T00:34:53.980Z,3.10
2022-09-07T00:37:20.784Z,2.95
2022-09-07T00:39:47.818Z,3.33
2022-09-07T00:42:14.774Z,2.55
2022-09-07T00:45:00.927Z,3.88
2022-09-07T00:47:34.105Z,3.55
2022-09-07T00:50:04.042Z,3.80
2022-09-07T00:52:31.513Z,5.30
2022-09-07T00:55:00.387Z,4.35
2022-09-07T00:57:28.231Z,6.80
2022-09-07T00:59:56.269Z,6.32
2022-09-07T01:02:24.039Z,7.13
2022-09-07T01:05:00.424Z,6.15
2022-09-07T01:07:27.332Z,5.63
2022-09-07T01:09:55.546Z,4.35
2022-09-07T01:12:22.414Z,4.25
2022-09-07T01:14:51.970Z,6.53
2022-09-07T01:17:24.102Z,4.90
2022-09-07T01:20:20.511Z,7.43
2022-09-07T01:23:21.092Z,6.35
2022-09-07T01:26:00.781Z,5.63
2022-09-07T01:28:30.264Z,6.80
2022-09-07T01:30:59.383Z,8.95
2022-09-07T01:33:35.865Z,5.75
2022-09-07T01:36:10.569Z,7.00
2022-09-07T01:38:39.054Z,5.03
2022-09-07T01:41:10.298Z,6.22
2022-09-07T01:43:41.804Z,5.20
2022-09-07T01:46:14.754Z,7.88
2022-09-07T01:48:43.791Z,4.97
2022-09-07T01:51:11.634Z,5.20
2022-09-07T01:53:41.575Z,5.97
2022-09-07T01:56:11.822Z,6.45
2022-09-07T01:58:43.903Z,4.85
2022-09-07T02:01:13.176Z,5.65
2022-09-07T02:03:43.426Z,5.28
2022-09-07T02:06:13.992Z,6.97
2022-09-07T02:08:44.177Z,7.95
2022-09-07T02:11:14.405Z,4.32
2022-09-07T02:13:46.207Z,7.57
2022-09-07T02:16:15.525Z,7.35
2022-09-07T02:18:45.985Z,4.38
2022-09-07T02:21:15.266Z,8.73
2022-09-07T02:23:44.964Z,4.05
2022-09-07T02:26:15.687Z,5.47
2022-09-07T02:28:44.174Z,5.32
2022-09-07T02:31:11.039Z,9.00
2022-09-07T02:33:37.928Z,4.47
2022-09-07T02:36:05.507Z,4.80
2022-09-07T02:38:32.720Z,5.13
2022-09-07T02:41:00.935Z,4.78
2022-09-07T02:43:28.778Z,6.55
2022-09-07T02:46:07.546Z,6.28
2022-09-07T02:48:42.611Z,5.72
2022-09-07T02:51:15.723Z,5.38
2022-09-07T02:54:13.194Z,7.03
2022-09-07T02:56:49.784Z,6.13
2022-09-07T02:59:26.753Z,5.55
2022-09-07T03:02:00.543Z,8.93
2022-09-07T03:04:34.189Z,6.35
2022-09-07T03:07:04.903Z,5.45
2022-09-07T03:09:37.829Z,6.03
2022-09-07T03:12:05.502Z,6.03
2022-09-07T03:14:33.778Z,7.40
2022-09-07T03:17:02.853Z,5.63
2022-09-07T03:19:29.584Z,5.82
2022-09-07T03:21:56.363Z,7.82
2022-09-07T03:24:23.090Z,7.20
2022-09-07T03:26:51.390Z,6.45
2022-09-07T03:29:19.148Z,5.05
2022-09-07T03:31:46.270Z,6.80
2022-09-07T03:34:14.402Z,6.70
2022-09-07T03:36:41.578Z,5.70
2022-09-07T03:39:10.337Z,7.50
2022-09-07T03:41:37.222Z,6.50
2022-09-07T03:44:05.205Z,6.60
2022-09-07T03:46:32.205Z,4.95
2022-09-07T03:48:59.030Z,5.18
2022-09-07T03:51:27.205Z,6.10
2022-09-07T03:53:54.727Z,6.72
2022-09-07T03:56:23.122Z,6.03
2022-09-07T03:58:50.874Z,7.50
2022-09-07T04:01:20.050Z,6.90
2022-09-07T04:03:47.103Z,6.93
2022-09-07T04:06:14.219Z,9.18
2022-09-07T04:08:42.889Z,10.40
2022-09-07T04:11:13.189Z,7.15
2022-09-07T04:13:40.316Z,8.80
2022-09-07T04:16:11.665Z,8.50
2022-09-07T04:18:38.446Z,7.82
2022-09-07T04:21:05.364Z,6.90
2022-09-07T04:23:32.379Z,9.00
2022-09-07T04:26:00.549Z,10.05
2022-09-07T04:28:27.347Z,9.98
2022-09-07T04:30:54.160Z,13.15
2022-09-07T04:33:21.640Z,10.98
2022-09-07T04:35:48.453Z,12.77
2022-09-07T04:38:16.830Z,10.88
2022-09-07T04:40:44.078Z,11.88
2022-09-07T04:43:13.227Z,10.15
2022-09-07T04:45:40.382Z,11.60
2022-09-07T04:48:07.915Z,11.75
2022-09-07T04:50:34.678Z,11.25
2022-09-07T04:53:01.455Z,11.57
2022-09-07T04:55:28.222Z,11.55
2022-09-07T04:57:55.191Z,12.75
2022-09-07T05:00:23.364Z,14.32
2022-09-07T05:02:50.329Z,12.20
2022-09-07T05:05:17.206Z,11.23
2022-09-07T05:07:44.259Z,12.70
2022-09-07T05:10:11.272Z,12.55
2022-09-07T05:12:38.068Z,16.00
2022-09-07T05:15:05.859Z,12.10
2022-09-07T05:17:34.059Z,14.80
2022-09-07T05:20:00.982Z,16.42
2022-09-07T05:22:27.828Z,16.00
2022-09-07T05:24:54.550Z,14.35
2022-09-07T05:27:21.306Z,17.00
2022-09-07T05:30:04.479Z,15.70
2022-09-07T05:32:36.215Z,16.02
2022-09-07T05:35:02.974Z,16.27
2022-09-07T05:37:29.746Z,15.27
2022-09-07T05:39:56.908Z,13.60
2022-09-07T05:42:23.915Z,19.13
2022-09-07T05:44:50.969Z,17.90
2022-09-07T05:47:17.742Z,15.13
2022-09-07T05:49:45.943Z,19.90
2022-09-07T05:52:12.927Z,19.42
2022-09-07T05:54:40.204Z,19.10
2022-09-07T05:57:07.436Z,19.27
2022-09-07T05:59:34.312Z,21.02
2022-09-07T06:02:02.002Z,20.40
2022-09-07T06:04:28.821Z,17.60
2022-09-07T06:07:20.513Z,21.25
2022-09-07T06:12:30.254Z,18.45
2022-09-07T06:14:57.009Z,19.60
2022-09-07T06:17:23.871Z,17.88
2022-09-07T06:19:50.589Z,19.13
2022-09-07T06:22:18.689Z,17.98
2022-09-07T06:24:45.388Z,17.90
2022-09-07T06:27:12.129Z,17.73
2022-09-07T06:29:38.794Z,16.92
2022-09-07T06:34:52.634Z,16.15
2022-09-07T06:37:20.718Z,17.08
2022-09-07T06:39:48.970Z,15.30
2022-09-07T06:42:15.727Z,21.88
2022-09-07T06:44:42.487Z,18.30
2022-09-07T06:47:09.177Z,14.88
2022-09-07T06:49:35.839Z,18.92
2022-09-07T06:52:03.183Z,15.57
2022-09-07T06:57:17.948Z,15.35
2022-09-07T06:59:44.633Z,19.45
2022-09-07T07:02:12.914Z,17.73
2022-09-07T07:04:41.044Z,19.50
2022-09-07T07:07:10.643Z,19.15
2022-09-07T07:09:39.022Z,20.83
2022-09-07T07:12:05.894Z,20.27
2022-09-07T07:14:35.533Z,20.60
2022-09-07T07:17:03.228Z,22.50
2022-09-07T07:19:29.996Z,26.95
2022-09-07T07:24:44.891Z,24.85
2022-09-07T07:27:12.067Z,26.73
2022-09-07T07:29:38.735Z,27.67
2022-09-07T07:32:05.703Z,26.73
2022-09-07T07:34:33.197Z,29.75
2022-09-07T07:36:59.921Z,30.30
2022-09-07T07:42:14.921Z,31.83
2022-09-07T07:44:41.567Z,30.20
2022-09-07T07:47:08.285Z,25.15
2022-09-07T07:49:34.998Z,29.73
2022-09-07T07:54:48.724Z,31.90
2022-09-07T07:57:19.484Z,27.60
2022-09-07T07:59:46.283Z,30.75
2022-09-07T08:02:15.031Z,33.13
2022-09-07T08:04:41.865Z,29.95
2022-09-07T08:07:11.138Z,28.80
2022-09-07T08:09:39.820Z,27.08
2022-09-07T08:12:06.679Z,26.95
2022-09-07T08:14:36.643Z,28.10
2022-09-07T08:17:03.267Z,29.45
2022-09-07T08:19:29.927Z,28.92
2022-09-07T08:21:56.724Z,25.60
2022-09-07T08:24:23.626Z,29.90
2022-09-07T08:26:50.423Z,25.98
2022-09-07T08:29:17.086Z,26.30
2022-09-07T08:31:45.217Z,23.83
2022-09-07T08:34:11.950Z,23.63
2022-09-07T08:36:38.627Z,25.45
2022-09-07T08:39:05.334Z,25.55
2022-09-07T08:41:46.894Z,20.40
2022-09-07T08:44:18.770Z,18.42
2022-09-07T08:46:50.316Z,26.90
2022-09-07T08:49:20.423Z,21.52
2022-09-07T08:51:50.114Z,20.88
2022-09-07T08:54:17.579Z,19.85
2022-09-07T08:59:41.868Z,20.45
2022-09-07T09:02:35.112Z,15.38
2022-09-07T09:05:19.805Z,17.50
2022-09-07T09:07:55.370Z,13.07
2022-09-07T09:10:28.249Z,15.35
2022-09-07T09:13:05.294Z,14.20
2022-09-07T09:15:41.179Z,11.70
2022-09-07T09:18:18.575Z,15.93
2022-09-07T09:20:49.216Z,12.07
2022-09-07T09:23:18.648Z,10.02
2022-09-07T09:25:50.805Z,11.55
2022-09-07T09:28:17.851Z,10.15
2022-09-07T09:30:44.926Z,8.00
2022-09-07T09:33:18.207Z,8.07
2022-09-07T09:35:45.730Z,9.20
2022-09-07T09:38:34.084Z,6.30
2022-09-07T09:41:04.614Z,10.23
2022-09-07T09:43:38.701Z,11.07
2022-09-07T09:46:16.093Z,9.43
2022-09-07T09:48:50.371Z,8.48
2022-09-07T09:54:06.451Z,9.98
2022-09-07T09:56:38.397Z,8.88
2022-09-07T10:05:27.207Z,6.72
2022-09-07T10:07:54.085Z,4.05
2022-09-07T10:10:21.122Z,4.28
2022-09-07T10:12:47.889Z,5.15
2022-09-07T10:15:25.955Z,6.32
2022-09-07T10:17:52.703Z,2.42
2022-09-07T10:20:37.563Z,5.07
2022-09-07T10:23:06.170Z,4.00
2022-09-07T10:25:36.233Z,5.80
2022-09-07T10:28:16.822Z,3.22
2022-09-07T10:30:55.602Z,4.05
2022-09-07T10:33:26.876Z,4.65
2022-09-07T10:36:00.573Z,5.13
2022-09-07T10:38:30.421Z,4.03
2022-09-07T10:41:01.429Z,6.70
2022-09-07T10:43:38.791Z,7.75
2022-09-07T10:46:56.197Z,6.07
2022-09-07T10:49:12.939Z,2.25
2022-09-07T10:51:46.143Z,3.20
2022-09-07T10:54:34.834Z,4.28
2022-09-07T10:57:09.242Z,3.53
2022-09-07T11:02:39.229Z,5.05
2022-09-07T11:05:14.619Z,4.78
2022-09-07T11:08:00.541Z,3.20
2022-09-07T11:10:33.071Z,6.95
2022-09-07T11:13:02.015Z,5.47
2022-09-07T11:15:30.819Z,3.13
2022-09-07T11:18:01.389Z,7.40
2022-09-07T11:20:31.095Z,3.67
2022-09-07T11:23:04.639Z,4.40
2022-09-07T11:25:34.133Z,4.43
2022-09-07T11:28:04.014Z,7.05
2022-09-07T11:30:32.987Z,2.55
2022-09-07T11:33:03.447Z,4.45
2022-09-07T11:35:41.073Z,3.13
2022-09-07T11:38:25.623Z,5.28
2022-09-07T11:41:15.945Z,5.07
2022-09-07T11:43:45.311Z,2.70
2022-09-07T11:46:14.960Z,3.17
2022-09-07T11:48:43.847Z,3.22
2022-09-07T11:51:15.316Z,3.30
2022-09-07T11:53:45.905Z,2.67
2022-09-07T11:56:15.210Z,4.85
2022-09-07T11:58:58.070Z,4.53
2022-09-07T12:01:32.570Z,4.60
2022-09-07T12:04:32.416Z,5.28
2022-09-07T12:07:16.325Z,4.05
2022-09-07T12:09:58.225Z,4.60
2022-09-07T12:12:47.785Z,4.22
2022-09-07T12:15:24.345Z,3.17
2022-09-07T12:18:02.054Z,3.75
2022-09-07T12:20:39.467Z,4.35
2022-09-07T12:23:20.958Z,4.10
2022-09-07T12:25:50.731Z,5.15
2022-09-07T12:28:24.009Z,5.43
2022-09-07T12:30:59.722Z,2.20
2022-09-07T12:33:31.656Z,2.80
2022-09-07T12:36:00.816Z,2.92
2022-09-07T12:38:59.786Z,3.45
2022-09-07T12:41:41.559Z,3.53
2022-09-07T12:44:15.898Z,5.10
2022-09-07T12:46:46.707Z,5.38
2022-09-07T12:49:49.425Z,4.38
2022-09-07T12:52:31.431Z,6.57
2022-09-07T12:55:26.622Z,2.13
2022-09-07T12:58:01.972Z,4.05
2022-09-07T13:00:35.254Z,7.20
2022-09-07T13:11:47.989Z,5.93
2022-09-07T13:14:23.215Z,4.25
2022-09-07T13:17:41.663Z,1.85
2022-09-07T13:20:30.054Z,3.47
2022-09-07T13:23:22.610Z,4.88
2022-09-07T13:25:54.460Z,2.17
2022-09-07T13:28:25.537Z,1.70
2022-09-07T13:31:02.248Z,2.33
2022-09-07T13:33:50.455Z,2.95
2022-09-07T13:36:25.479Z,3.45
2022-09-07T13:41:21.822Z,2.95
2022-09-07T13:43:49.642Z,3.22
2022-09-07T13:46:32.729Z,2.22
2022-09-07T13:49:06.984Z,5.13
2022-09-07T13:51:38.592Z,2.55
2022-09-07T13:54:10.797Z,4.63
2022-09-07T13:56:41.550Z,3.88
2022-09-07T13:59:12.710Z,3.10
2022-09-07T14:01:45.539Z,3.63
2022-09-07T14:04:21.369Z,2.08
2022-09-07T14:06:48.211Z,7.20
2022-09-07T14:09:16.903Z,5.95
2022-09-07T14:11:45.315Z,4.55
2022-09-07T14:14:14.477Z,2.88
2022-09-07T14:16:44.763Z,4.75
2022-09-07T14:19:15.447Z,3.90
2022-09-07T14:21:42.350Z,4.20
2022-09-07T14:24:19.791Z,3.75
2022-09-07T14:26:48.036Z,3.55
2022-09-07T14:29:27.025Z,2.55
2022-09-07T14:31:55.089Z,6.22
2022-09-07T14:34:23.398Z,4.82
2022-09-07T14:36:51.101Z,3.33
2022-09-07T14:39:19.462Z,5.00
2022-09-07T14:41:46.536Z,4.03
2022-09-07T14:44:28.666Z,3.25
2022-09-07T14:46:57.530Z,3.90
2022-09-07T14:49:24.536Z,2.28
2022-09-07T14:51:52.142Z,7.05
2022-09-07T14:54:20.254Z,5.25
2022-09-07T14:57:01.123Z,3.60
2022-09-07T14:59:36.527Z,3.67
2022-09-07T15:02:25.261Z,3.35
2022-09-07T15:05:23.204Z,4.18
2022-09-07T15:07:52.183Z,3.65
2022-09-07T15:10:37.208Z,2.28
2022-09-07T15:13:06.147Z,1.80
2022-09-07T15:15:34.350Z,2.90
2022-09-07T15:18:08.778Z,3.30
2022-09-07T15:20:38.211Z,6.03
2022-09-07T15:23:06.392Z,3.15
2022-09-07T15:25:34.183Z,5.30
2022-09-07T15:28:00.970Z,2.97
2022-09-07T15:30:27.883Z,3.33
2022-09-07T15:32:55.733Z,6.13
2022-09-07T15:35:24.953Z,3.25
2022-09-07T15:38:59.548Z,4.45
2022-09-07T15:41:03.699Z,5.93
2022-09-07T15:43:29.373Z,2.35
2022-09-07T15:45:56.393Z,3.70
2022-09-07T15:48:27.215Z,5.40
2022-09-07T15:51:01.562Z,4.13
2022-09-07T15:56:16.223Z,2.33
2022-09-07T15:58:43.731Z,4.35
2022-09-07T16:03:59.086Z,3.67
2022-09-07T16:06:27.570Z,4.40
2022-09-07T16:08:55.291Z,2.60
2022-09-07T16:11:24.558Z,3.63
2022-09-07T16:13:55.958Z,2.80
2022-09-07T16:16:23.043Z,5.75
2022-09-07T16:18:50.015Z,5.07
2022-09-07T16:21:17.384Z,4.45
2022-09-07T16:23:47.920Z,6.63
2022-09-07T16:26:16.328Z,7.30
2022-09-07T16:28:44.784Z,5.50
2022-09-07T16:31:14.319Z,6.47
2022-09-07T16:33:41.130Z,2.25
2022-09-07T16:36:10.512Z,4.10
2022-09-07T16:38:45.474Z,4.93
2022-09-07T16:41:15.000Z,6.00
2022-09-07T16:43:41.881Z,7.65
2022-09-07T16:46:11.413Z,3.67
2022-09-07T16:48:38.118Z,6.35
2022-09-07T16:51:05.287Z,5.65
2022-09-07T16:53:34.263Z,4.18
2022-09-07T16:56:01.859Z,4.97
2022-09-07T16:58:38.283Z,4.18
2022-09-07T17:01:05.666Z,3.33
2022-09-07T17:03:32.802Z,5.47
2022-09-07T17:05:59.859Z,6.68
2022-09-07T17:08:26.689Z,5.53
2022-09-07T17:10:59.137Z,4.40
2022-09-07T17:13:25.802Z,5.18
2022-09-07T17:15:54.194Z,3.35
2022-09-07T17:19:28.893Z,4.65
2022-09-07T17:21:09.679Z,5.53
2022-09-07T17:23:45.623Z,2.88
2022-09-07T17:26:16.112Z,2.50
2022-09-07T17:28:44.262Z,7.10
2022-09-07T17:32:24.052Z,2.83
2022-09-07T17:34:00.809Z,8.48
2022-09-07T17:36:28.522Z,5.28
2022-09-07T17:41:44.991Z,4.47
2022-09-07T17:44:11.637Z,5.22
2022-09-07T17:46:39.688Z,3.85
2022-09-07T17:49:11.177Z,4.65
2022-09-07T17:51:38.115Z,4.10
2022-09-07T17:54:13.166Z,5.43
2022-09-07T18:01:55.058Z,9.38
2022-09-07T18:04:22.122Z,5.05
2022-09-07T18:06:49.068Z,5.97
2022-09-07T18:09:16.154Z,5.07
2022-09-07T18:11:45.909Z,7.22
2022-09-07T18:14:14.446Z,3.67
2022-09-07T18:16:41.792Z,7.03
2022-09-07T18:19:11.150Z,2.83
2022-09-07T18:21:41.049Z,3.72
2022-09-07T18:24:13.505Z,3.50
2022-09-07T18:26:41.148Z,5.32
2022-09-07T18:29:26.024Z,4.60
2022-09-07T18:31:54.365Z,3.75
2022-09-07T18:34:22.843Z,4.97
2022-09-07T18:36:49.592Z,5.22
2022-09-07T18:39:16.338Z,4.28
2022-09-07T18:41:43.096Z,4.78
2022-09-07T18:46:56.555Z,5.90
2022-09-07T18:49:24.946Z,2.28
2022-09-07T18:54:38.717Z,4.47
2022-09-07T18:57:06.720Z,4.75
2022-09-07T18:59:33.883Z,5.68
2022-09-07T19:02:04.339Z,3.88
2022-09-07T19:07:20.962Z,5.57
2022-09-07T19:09:48.327Z,5.15
2022-09-07T19:12:15.208Z,3.88
2022-09-07T19:14:42.336Z,5.53
2022-09-07T19:17:11.093Z,5.00
2022-09-07T19:19:39.651Z,5.13
2022-09-07T19:22:06.567Z,7.55
2022-09-07T19:24:33.526Z,3.83
2022-09-07T19:27:00.914Z,5.10
2022-09-07T19:29:28.647Z,4.47
2022-09-07T19:32:04.800Z,4.90
2022-09-07T19:34:31.890Z,3.65
2022-09-07T19:37:00.452Z,4.97
2022-09-07T19:39:27.295Z,6.60
2022-09-07T19:41:54.372Z,7.10
2022-09-07T19:44:21.186Z,15.68
2022-09-07T19:46:48.026Z,5.40
2022-09-07T19:49:14.998Z,7.38
2022-09-07T19:51:42.361Z,6.68
2022-09-07T19:54:11.835Z,4.43
2022-09-07T19:56:39.932Z,6.35
2022-09-07T19:59:07.166Z,7.85
2022-09-07T20:01:35.108Z,2.42
2022-09-07T20:04:03.583Z,6.47
2022-09-07T20:06:32.926Z,6.22
2022-09-07T20:09:01.514Z,10.48
2022-09-07T20:11:29.710Z,15.05
2022-09-07T20:13:57.189Z,10.80
2022-09-07T20:16:25.021Z,6.03
2022-09-07T20:18:52.010Z,8.00
2022-09-07T20:21:21.301Z,5.43
2022-09-07T20:23:48.317Z,6.28
2022-09-07T20:26:16.581Z,7.28
2022-09-07T20:28:44.823Z,8.43
2022-09-07T20:31:13.618Z,9.40
2022-09-07T20:33:40.675Z,6.22
2022-09-07T20:36:08.973Z,6.95
2022-09-07T20:38:39.063Z,3.85
2022-09-07T20:41:06.079Z,5.57
2022-09-07T20:43:33.010Z,6.97
2022-09-07T20:46:01.288Z,8.75
2022-09-07T20:48:28.216Z,4.03
2022-09-07T20:50:55.778Z,7.53
2022-09-07T20:53:22.586Z,5.82
2022-09-07T20:55:49.493Z,5.60
2022-09-07T20:58:16.421Z,5.53
2022-09-07T21:00:43.247Z,4.63
2022-09-07T21:03:11.427Z,5.00
2022-09-07T21:05:38.693Z,5.15
2022-09-07T21:08:05.875Z,5.88
2022-09-07T21:10:32.614Z,7.07
2022-09-07T21:12:59.364Z,4.68
2022-09-07T21:15:26.109Z,9.00
2022-09-07T21:17:52.932Z,8.60
2022-09-07T21:20:21.146Z,8.48
2022-09-07T21:22:47.872Z,6.13
2022-09-07T21:25:14.787Z,6.00
2022-09-07T21:27:41.542Z,4.88
2022-09-07T21:30:09.404Z,6.72
2022-09-07T21:32:36.099Z,3.80
2022-09-07T21:35:02.760Z,4.60
2022-09-07T21:37:30.826Z,6.78
2022-09-07T21:39:58.108Z,10.93
2022-09-07T21:42:24.829Z,4.75
2022-09-07T21:44:51.524Z,4.97
2022-09-07T21:47:18.164Z,6.63
2022-09-07T21:49:44.842Z,7.60
2022-09-07T21:52:11.535Z,4.68
2022-09-07T21:54:39.592Z,6.68
2022-09-07T21:57:06.428Z,6.88
2022-09-07T21:59:33.091Z,9.32
2022-09-07T22:02:00.565Z,6.55
2022-09-07T22:04:27.291Z,6.20
2022-09-07T22:06:54.069Z,6.90
2022-09-07T22:09:20.998Z,5.75
2022-09-07T22:11:49.545Z,6.45
2022-09-07T22:14:16.257Z,5.63
2022-09-07T22:16:42.879Z,8.02
2022-09-07T22:19:09.562Z,3.03
2022-09-07T22:21:36.323Z,6.65
2022-09-07T22:24:04.719Z,8.80
2022-09-07T22:26:33.415Z,8.95
2022-09-07T22:29:01.446Z,7.72
2022-09-07T22:31:29.853Z,5.32
2022-09-07T22:33:57.644Z,5.82
2022-09-07T22:36:26.433Z,5.45
2022-09-07T22:38:55.664Z,8.02
2022-09-07T22:41:23.419Z,5.90
2022-09-07T22:43:52.690Z,4.60
2022-09-07T22:46:22.858Z,5.30
2022-09-07T22:48:50.212Z,7.25
2022-09-07T22:51:17.341Z,6.13
2022-09-07T22:53:44.248Z,7.65
2022-09-07T22:56:12.722Z,8.15
2022-09-07T22:58:39.662Z,7.88
2022-09-07T23:01:07.189Z,6.13
2022-09-07T23:03:35.472Z,7.50
2022-09-07T23:06:02.525Z,6.43
2022-09-07T23:08:29.945Z,6.95
2022-09-07T23:11:02.391Z,6.93
2022-09-07T23:13:29.191Z,5.45
2022-09-07T23:15:56.253Z,6.28
2022-09-07T23:18:23.052Z,5.88
2022-09-07T23:20:51.095Z,6.55
2022-09-07T23:23:18.016Z,7.25
2022-09-07T23:25:44.806Z,8.10
2022-09-07T23:28:12.379Z,6.70
2022-09-07T23:30:40.601Z,7.20
2022-09-07T23:33:07.420Z,6.05
2022-09-07T23:35:34.063Z,4.07
2022-09-07T23:38:02.454Z,8.50
2022-09-07T23:40:30.441Z,6.07
2022-09-07T23:42:57.399Z,5.57
2022-09-07T23:45:24.123Z,3.78
2022-09-07T23:47:50.840Z,10.05
2022-09-07T23:50:17.542Z,3.10
2022-09-07T23:52:44.275Z,8.00
2022-09-07T23:55:13.057Z,7.88
2022-09-07T23:57:39.768Z,6.18
